createdAt,value
2022-09-06T00:02:21.246Z,97.93
2022-09-06T00:04:49.440Z,96.05
2022-09-06T00:07:17.187Z,95.10
2022-09-06T00:09:44.725Z,96.61
2022-09-06T00:12:14.064Z,95.80
2022-09-06T00:14:41.607Z,95.60
2022-09-06T00:17:09.403Z,95.91
2022-09-06T00:19:37.329Z,96.02
2022-09-06T00:22:04.790Z,96.92
2022-09-06T00:24:32.547Z,97.72
2022-09-06T00:27:00.260Z,98.45
2022-09-06T00:29:27.669Z,99.55
2022-09-06T00:31:55.563Z,97.66
2022-09-06T00:34:22.903Z,98.85
2022-09-06T00:36:50.365Z,97.45
2022-09-06T00:39:17.730Z,96.33
2022-09-06T00:41:45.360Z,96.53
2022-09-06T00:44:12.729Z,96.57
2022-09-06T00:46:40.414Z,96.29
2022-09-06T00:49:24.286Z,95.24
2022-09-06T00:51:52.624Z,96.25
2022-09-06T00:54:20.080Z,96.20
2022-09-06T00:56:47.617Z,95.45
2022-09-06T00:59:15.119Z,97.10
2022-09-06T01:01:42.661Z,96.23
2022-09-06T01:04:10.261Z,95.54
2022-09-06T01:06:48.558Z,95.57
2022-09-06T01:09:34.833Z,95.39
2022-09-06T01:12:10.326Z,95.16
2022-09-06T01:14:56.604Z,94.80
2022-09-06T01:17:42.005Z,95.83
2022-09-06T01:20:28.321Z,95.55
2022-09-06T01:23:04.768Z,94.53
2022-09-06T01:25:38.243Z,95.91
2022-09-06T01:28:11.562Z,96.03
2022-09-06T01:30:40.611Z,96.57
2022-09-06T01:33:14.318Z,95.28
2022-09-06T01:35:48.713Z,95.23
2022-09-06T01:38:16.076Z,95.50
2022-09-06T01:40:43.494Z,95.22
2022-09-06T01:43:11.375Z,95.30
2022-09-06T01:45:45.962Z,94.38
2022-09-06T01:48:16.461Z,94.87
2022-09-06T01:51:02.267Z,95.57
2022-09-06T01:53:44.325Z,94.74
2022-09-06T01:56:38.263Z,94.28
2022-09-06T01:59:11.926Z,92.82
2022-09-06T02:01:58.595Z,94.98
2022-09-06T02:04:30.855Z,94.23
2022-09-06T02:06:59.425Z,95.04
2022-09-06T02:09:27.000Z,95.72
2022-09-06T02:11:56.653Z,95.16
2022-09-06T02:14:26.600Z,94.65
2022-09-06T02:16:54.128Z,92.96
2022-09-06T02:19:22.143Z,92.93
2022-09-06T02:21:49.575Z,93.65
2022-09-06T02:24:19.012Z,94.38
2022-09-06T02:26:46.644Z,93.63
2022-09-06T02:29:14.391Z,94.18
2022-09-06T02:31:45.698Z,93.61
2022-09-06T02:34:17.955Z,95.15
2022-09-06T02:36:45.747Z,94.98
2022-09-06T02:39:13.203Z,94.46
2022-09-06T02:41:41.335Z,96.38
2022-09-06T02:44:08.768Z,96.90
2022-09-06T02:46:36.238Z,94.94
2022-09-06T02:49:04.012Z,94.63
2022-09-06T02:51:36.130Z,95.27
2022-09-06T02:54:03.623Z,97.43
2022-09-06T02:56:33.893Z,99.92
2022-09-06T02:59:01.400Z,100.00
2022-09-06T03:01:28.857Z,100.00
2022-09-06T03:03:57.500Z,98.96
2022-09-06T03:06:24.902Z,99.24
2022-09-06T03:08:52.736Z,99.95
2022-09-06T03:11:21.881Z,99.89
2022-09-06T03:13:51.216Z,100.00
2022-09-06T03:16:19.068Z,99.89
2022-09-06T03:18:47.094Z,100.00
2022-09-06T03:21:14.811Z,99.76
2022-09-06T03:23:42.344Z,100.00
2022-09-06T03:26:09.744Z,100.00
2022-09-06T03:28:37.444Z,99.57
2022-09-06T03:31:04.970Z,98.83
2022-09-06T03:33:32.613Z,99.54
2022-09-06T03:36:00.432Z,98.59
2022-09-06T03:38:28.270Z,96.98
2022-09-06T03:40:55.717Z,96.43
2022-09-06T03:43:23.765Z,95.68
2022-09-06T03:45:52.142Z,95.31
2022-09-06T03:48:20.527Z,96.63
2022-09-06T03:50:51.760Z,95.81
2022-09-06T03:53:19.273Z,95.62
2022-09-06T03:55:47.524Z,96.02
2022-09-06T03:58:16.430Z,96.51
2022-09-06T04:00:44.672Z,94.24
2022-09-06T04:03:12.226Z,96.28
2022-09-06T04:05:40.016Z,95.39
2022-09-06T04:08:07.644Z,94.75
2022-09-06T04:10:35.948Z,93.84
2022-09-06T04:13:03.370Z,91.40
2022-09-06T04:15:31.291Z,91.15
2022-09-06T04:17:59.272Z,91.83
2022-09-06T04:20:26.830Z,93.66
2022-09-06T04:22:54.188Z,94.41
2022-09-06T04:25:21.659Z,94.41
2022-09-06T04:27:49.059Z,93.37
2022-09-06T04:30:16.778Z,92.46
2022-09-06T04:32:44.162Z,92.93
2022-09-06T04:35:11.529Z,93.50
2022-09-06T04:37:38.986Z,93.47
2022-09-06T04:40:07.003Z,92.38
2022-09-06T04:42:34.513Z,91.95
2022-09-06T04:45:01.855Z,93.44
2022-09-06T04:47:29.394Z,93.14
2022-09-06T04:49:56.949Z,92.16
2022-09-06T04:52:29.479Z,90.71
2022-09-06T04:54:57.635Z,88.97
2022-09-06T04:57:25.096Z,88.65
2022-09-06T04:59:52.477Z,87.27
2022-09-06T05:02:20.026Z,86.93
2022-09-06T05:04:48.781Z,84.62
2022-09-06T05:07:16.212Z,85.37
2022-09-06T05:09:43.664Z,83.93
2022-09-06T05:12:11.088Z,85.99
2022-09-06T05:14:38.557Z,86.43
2022-09-06T05:17:06.545Z,86.91
2022-09-06T05:19:33.984Z,86.88
2022-09-06T05:22:01.473Z,85.63
2022-09-06T05:24:28.940Z,85.55
2022-09-06T05:26:56.798Z,84.83
2022-09-06T05:29:27.578Z,83.50
2022-09-06T05:31:58.598Z,83.42
2022-09-06T05:34:26.233Z,82.41
2022-09-06T05:36:54.643Z,82.02
2022-09-06T05:39:22.229Z,80.57
2022-09-06T05:41:49.584Z,79.69
2022-09-06T05:44:17.003Z,78.99
2022-09-06T05:46:45.469Z,79.03
2022-09-06T05:49:13.187Z,78.53
2022-09-06T05:51:41.035Z,78.66
2022-09-06T05:54:12.997Z,78.11
2022-09-06T05:56:40.491Z,76.51
2022-09-06T05:59:07.820Z,73.85
2022-09-06T06:01:35.392Z,74.88
2022-09-06T06:04:05.631Z,74.67
2022-09-06T06:06:34.321Z,74.42
2022-09-06T06:09:01.713Z,72.89
2022-09-06T06:11:31.161Z,72.46
2022-09-06T06:13:59.547Z,72.04
2022-09-06T06:16:26.921Z,70.96
2022-09-06T06:18:54.310Z,71.22
2022-09-06T06:21:21.817Z,68.86
2022-09-06T06:23:50.199Z,67.87
2022-09-06T06:26:17.842Z,67.02
2022-09-06T06:28:45.474Z,66.52
2022-09-06T06:31:13.011Z,65.99
2022-09-06T06:33:40.538Z,64.72
2022-09-06T06:36:18.509Z,65.71
2022-09-06T06:38:46.304Z,63.34
2022-09-06T06:41:14.576Z,61.61
2022-09-06T06:43:42.100Z,61.20
2022-09-06T06:46:10.475Z,61.60
2022-09-06T06:48:38.247Z,60.59
2022-09-06T06:51:05.841Z,57.60
2022-09-06T06:53:33.285Z,58.92
2022-09-06T06:56:00.988Z,58.69
2022-09-06T06:58:28.582Z,60.11
2022-09-06T07:00:56.364Z,59.42
2022-09-06T07:03:23.915Z,59.03
2022-09-06T07:08:39.928Z,53.02
2022-09-06T07:11:07.811Z,52.46
2022-09-06T07:13:35.584Z,55.05
2022-09-06T07:16:09.805Z,52.15
2022-09-06T07:18:43.463Z,53.18
2022-09-06T07:24:06.216Z,47.08
2022-09-06T07:26:35.463Z,40.78
2022-09-06T07:29:03.359Z,36.18
2022-09-06T07:34:21.003Z,31.53
2022-09-06T07:36:48.812Z,29.17
2022-09-06T07:39:16.180Z,29.52
2022-09-06T07:41:43.599Z,29.16
2022-09-06T07:44:11.106Z,29.23
2022-09-06T07:46:38.969Z,32.19
2022-09-06T07:49:07.539Z,32.11
2022-09-06T07:51:35.480Z,28.74
2022-09-06T07:56:51.561Z,31.63
2022-09-06T07:59:19.005Z,31.51
2022-09-06T08:01:47.741Z,36.18
2022-09-06T08:04:15.727Z,33.92
2022-09-06T08:09:31.394Z,29.04
2022-09-06T08:11:59.189Z,30.67
2022-09-06T08:14:26.876Z,32.82
2022-09-06T08:16:54.980Z,36.83
2022-09-06T08:19:22.583Z,38.86
2022-09-06T08:21:50.056Z,38.54
2022-09-06T08:24:17.539Z,37.31
2022-09-06T08:26:45.029Z,33.02
2022-09-06T08:29:12.520Z,32.57
2022-09-06T08:31:41.127Z,32.20
2022-09-06T08:34:12.775Z,33.54
2022-09-06T11:48:35.362Z,40.27
2022-09-06T11:51:03.077Z,39.80
2022-09-06T11:53:50.705Z,39.67
2022-09-06T11:56:36.456Z,39.55
2022-09-06T11:59:06.795Z,38.87
2022-09-06T12:01:34.806Z,38.30
2022-09-06T12:06:35.773Z,37.90
2022-09-06T12:09:03.296Z,38.35
2022-09-06T12:11:35.365Z,37.24
2022-09-06T12:14:21.898Z,37.92
2022-09-06T12:17:02.184Z,38.39
2022-09-06T12:19:54.656Z,39.26
2022-09-06T12:22:32.886Z,38.65
2022-09-06T12:25:21.090Z,39.57
2022-09-06T12:27:55.762Z,38.89
2022-09-06T12:30:39.813Z,39.88
2022-09-06T12:33:26.413Z,39.58
2022-09-06T12:38:26.474Z,40.43
2022-09-06T12:40:58.600Z,40.18
2022-09-06T12:43:26.462Z,39.83
2022-09-06T12:45:53.876Z,40.17
2022-09-06T12:48:27.684Z,39.64
2022-09-06T12:51:07.618Z,40.26
2022-09-06T12:53:35.346Z,40.12
2022-09-06T12:56:06.447Z,40.15
2022-09-06T12:58:34.063Z,40.82
2022-09-06T13:01:08.251Z,40.81
2022-09-06T13:03:38.491Z,40.69
2022-09-06T13:06:06.660Z,40.76
2022-09-06T13:08:35.333Z,41.22
2022-09-06T13:11:02.951Z,41.01
2022-09-06T13:13:30.350Z,40.06
2022-09-06T13:15:57.897Z,40.29
2022-09-06T13:18:33.087Z,39.66
2022-09-06T13:21:05.212Z,40.61
2022-09-06T13:23:42.666Z,41.49
2022-09-06T13:26:11.028Z,42.29
2022-09-06T13:28:38.864Z,43.21
2022-09-06T13:31:10.394Z,43.32
2022-09-06T13:33:38.373Z,41.96
2022-09-06T13:36:08.636Z,41.99
2022-09-06T13:38:41.970Z,42.39
2022-09-06T13:41:24.702Z,43.93
2022-09-06T13:44:03.934Z,43.18
2022-09-06T13:46:32.598Z,43.50
2022-09-06T13:49:01.507Z,42.54
2022-09-06T13:51:44.642Z,44.64
2022-09-06T13:54:17.048Z,43.67
2022-09-06T13:56:52.363Z,43.49
2022-09-06T13:59:21.473Z,43.54
2022-09-06T14:02:13.843Z,44.17
2022-09-06T14:04:44.319Z,43.48
2022-09-06T14:07:12.793Z,43.97
2022-09-06T14:09:44.544Z,43.68
2022-09-06T14:12:31.296Z,44.25
2022-09-06T14:15:03.743Z,43.55
2022-09-06T14:17:33.762Z,42.36
2022-09-06T14:20:04.864Z,43.26
2022-09-06T14:22:33.308Z,43.87
2022-09-06T14:25:01.253Z,43.71
2022-09-06T14:27:29.085Z,43.42
2022-09-06T14:29:56.702Z,43.19
2022-09-06T14:32:26.015Z,44.95
2022-09-06T14:35:04.931Z,44.65
2022-09-06T14:37:37.238Z,44.75
2022-09-06T14:40:26.876Z,44.51
2022-09-06T14:43:00.666Z,44.63
2022-09-06T14:45:28.768Z,44.20
2022-09-06T14:48:05.190Z,45.41
2022-09-06T14:50:37.655Z,45.84
2022-09-06T14:53:15.046Z,45.75
2022-09-06T14:55:51.810Z,44.61
2022-09-06T14:58:19.431Z,46.14
2022-09-06T15:00:49.468Z,45.64
2022-09-06T15:03:17.029Z,46.48
2022-09-06T15:05:44.471Z,46.65
2022-09-06T15:08:12.247Z,44.91
2022-09-06T15:10:39.886Z,46.56
2022-09-06T15:13:07.925Z,44.93
2022-09-06T15:15:35.482Z,46.40
2022-09-06T15:18:03.078Z,47.61
2022-09-06T15:20:30.709Z,48.39
2022-09-06T15:23:21.687Z,46.77
2022-09-06T15:25:46.713Z,47.77
2022-09-06T15:28:15.296Z,46.05
2022-09-06T15:30:43.131Z,47.35
2022-09-06T15:33:10.924Z,47.57
2022-09-06T15:35:38.760Z,47.46
2022-09-06T15:38:06.656Z,49.03
2022-09-06T15:40:34.920Z,48.35
2022-09-06T15:43:03.468Z,49.17
2022-09-06T15:45:31.173Z,50.13
2022-09-06T15:47:58.804Z,47.05
2022-09-06T15:50:49.915Z,48.48
2022-09-06T15:53:13.988Z,48.09
2022-09-06T15:55:56.790Z,48.96
2022-09-06T15:58:27.535Z,46.60
2022-09-06T16:01:14.877Z,47.04
2022-09-06T16:03:46.300Z,47.11
2022-09-06T16:06:30.869Z,48.09
2022-09-06T16:08:59.668Z,46.86
2022-09-06T16:11:27.710Z,48.48
2022-09-06T16:13:55.403Z,49.03
2022-09-06T16:16:23.169Z,49.08
2022-09-06T16:18:52.395Z,49.54
2022-09-06T16:21:20.229Z,49.18
2022-09-06T16:23:55.109Z,50.57
2022-09-06T16:26:23.707Z,49.24
2022-09-06T16:28:51.425Z,48.36
2022-09-06T16:31:19.181Z,50.34
2022-09-06T16:33:49.007Z,50.63
2022-09-06T16:36:16.739Z,51.21
2022-09-06T16:38:44.325Z,50.14
2022-09-06T16:41:18.376Z,49.45
2022-09-06T16:43:46.279Z,51.22
2022-09-06T16:46:13.995Z,51.59
2022-09-06T16:48:41.899Z,52.20
2022-09-06T16:51:13.620Z,52.66
2022-09-06T16:53:41.857Z,51.82
2022-09-06T16:56:10.110Z,51.58
2022-09-06T16:58:39.551Z,52.79
2022-09-06T17:01:09.616Z,54.29
2022-09-06T17:03:38.293Z,53.72
2022-09-06T17:06:06.957Z,53.11
2022-09-06T17:08:35.223Z,54.81
2022-09-06T17:11:03.447Z,53.69
2022-09-06T17:13:32.301Z,55.77
2022-09-06T17:16:22.025Z,55.88
2022-09-06T17:18:50.419Z,55.70
2022-09-06T17:21:17.994Z,55.72
2022-09-06T17:23:45.529Z,56.31
2022-09-06T17:26:13.555Z,56.21
2022-09-06T17:28:41.055Z,56.54
2022-09-06T17:31:09.447Z,57.40
2022-09-06T17:33:37.255Z,58.03
2022-09-06T17:36:06.005Z,57.86
2022-09-06T17:38:33.833Z,58.25
2022-09-06T17:41:01.432Z,59.10
2022-09-06T17:43:29.239Z,59.67
2022-09-06T17:45:56.820Z,58.48
2022-09-06T17:48:25.417Z,57.71
2022-09-06T17:50:53.868Z,58.35
2022-09-06T17:53:21.580Z,58.93
2022-09-06T17:55:52.223Z,58.87
2022-09-06T17:58:20.197Z,58.03
2022-09-06T18:00:48.067Z,59.76
2022-09-06T18:03:15.763Z,58.71
2022-09-06T18:05:43.908Z,59.29
2022-09-06T18:08:13.119Z,59.15
2022-09-06T18:10:40.761Z,59.37
2022-09-06T18:13:08.301Z,58.29
2022-09-06T18:15:39.147Z,59.25
2022-09-06T18:18:07.556Z,59.53
2022-09-06T18:20:35.969Z,57.99
2022-09-06T18:23:03.584Z,59.50
2022-09-06T18:25:31.555Z,60.30
2022-09-06T18:27:59.155Z,60.34
2022-09-06T18:30:27.019Z,60.59
2022-09-06T18:32:54.837Z,59.42
2022-09-06T18:35:22.424Z,59.72
2022-09-06T18:37:50.183Z,57.40
2022-09-06T18:40:18.206Z,58.70
2022-09-06T18:42:46.581Z,59.68
2022-09-06T18:45:14.267Z,60.11
2022-09-06T18:47:42.955Z,60.54
2022-09-06T18:50:10.493Z,58.38
2022-09-06T18:52:39.275Z,60.40
2022-09-06T18:55:06.971Z,61.04
2022-09-06T18:57:34.643Z,61.90
2022-09-06T19:00:02.311Z,61.91
2022-09-06T19:02:30.123Z,62.79
2022-09-06T19:04:59.378Z,62.54
2022-09-06T19:07:29.626Z,62.02
2022-09-06T19:09:57.877Z,62.05
2022-09-06T19:12:25.401Z,59.77
2022-09-06T19:14:53.080Z,60.62
2022-09-06T19:17:20.551Z,59.63
2022-09-06T19:19:48.054Z,61.35
2022-09-06T19:22:15.508Z,60.58
2022-09-06T19:24:44.506Z,60.81
2022-09-06T19:27:12.289Z,61.76
2022-09-06T19:29:39.817Z,60.70
2022-09-06T19:32:07.287Z,60.30
2022-09-06T19:34:34.837Z,60.42
2022-09-06T19:37:02.446Z,60.11
2022-09-06T19:39:36.310Z,60.57
2022-09-06T19:42:04.928Z,60.31
2022-09-06T19:44:33.586Z,60.14
2022-09-06T19:47:02.291Z,60.00
2022-09-06T19:49:30.954Z,59.76
2022-09-06T19:51:58.473Z,60.71
2022-09-06T19:54:26.896Z,59.12
2022-09-06T19:56:55.099Z,59.46
2022-09-06T19:59:23.280Z,59.84
2022-09-06T20:01:50.936Z,61.84
2022-09-06T20:04:20.117Z,62.09
2022-09-06T20:06:48.209Z,63.43
2022-09-06T20:09:16.084Z,62.97
2022-09-06T20:11:43.708Z,62.88
2022-09-06T20:14:11.415Z,61.73
2022-09-06T20:16:42.072Z,62.96
2022-09-06T20:19:10.693Z,63.55
2022-09-06T20:21:38.239Z,63.74
2022-09-06T20:24:06.252Z,64.68
2022-09-06T20:26:34.018Z,64.81
2022-09-06T20:29:02.611Z,64.31
2022-09-06T20:31:30.659Z,64.67
2022-09-06T20:33:59.676Z,65.95
2022-09-06T20:36:28.563Z,66.79
2022-09-06T20:38:56.187Z,66.59
2022-09-06T20:41:24.383Z,65.08
2022-09-06T20:43:56.216Z,66.84
2022-09-06T20:46:25.461Z,65.34
2022-09-06T20:48:53.396Z,66.56
2022-09-06T20:51:21.648Z,67.74
2022-09-06T20:53:53.458Z,66.16
2022-09-06T20:56:21.763Z,65.92
2022-09-06T20:59:01.044Z,65.60
2022-09-06T21:01:29.661Z,65.19
2022-09-06T21:03:58.145Z,62.97
2022-09-06T21:06:26.045Z,63.17
2022-09-06T21:08:53.907Z,63.10
2022-09-06T21:11:21.608Z,64.62
2022-09-06T21:13:51.251Z,65.72
2022-09-06T21:16:23.922Z,64.00
2022-09-06T21:18:52.884Z,65.28
2022-09-06T21:21:20.466Z,65.24
2022-09-06T21:23:48.324Z,64.89
2022-09-06T21:26:18.853Z,65.80
2022-09-06T21:28:46.563Z,66.77
2022-09-06T21:31:14.194Z,66.88
2022-09-06T21:33:43.202Z,67.35
2022-09-06T21:36:11.724Z,68.15
2022-09-06T21:38:40.693Z,66.92
2022-09-06T21:41:08.448Z,67.66
2022-09-06T21:43:35.999Z,68.66
2022-09-06T21:46:03.947Z,68.13
2022-09-06T21:48:32.111Z,69.57
2022-09-06T21:50:59.598Z,69.54
2022-09-06T21:53:27.265Z,69.85
2022-09-06T21:56:04.065Z,71.06
2022-09-06T21:58:31.683Z,70.50
2022-09-06T22:00:59.473Z,70.20
2022-09-06T22:03:27.440Z,70.95
2022-09-06T22:05:55.515Z,70.88
2022-09-06T22:08:23.287Z,71.49
2022-09-06T22:10:51.041Z,72.02
2022-09-06T22:13:18.962Z,73.25
2022-09-06T22:15:46.888Z,73.47
2022-09-06T22:18:14.483Z,75.32
2022-09-06T22:20:41.988Z,74.93
2022-09-06T22:23:10.085Z,75.73
2022-09-06T22:25:37.858Z,76.98
2022-09-06T22:28:05.346Z,77.25
2022-09-06T22:30:32.790Z,76.97
2022-09-06T22:33:00.747Z,77.94
2022-09-06T22:35:28.282Z,76.24
2022-09-06T22:37:55.835Z,77.87
2022-09-06T22:40:23.385Z,77.88
2022-09-06T22:42:50.862Z,78.30
2022-09-06T22:45:18.429Z,78.50
2022-09-06T22:47:46.242Z,78.82
2022-09-06T22:50:13.708Z,77.67
2022-09-06T22:52:41.381Z,78.12
2022-09-06T22:55:09.302Z,79.15
2022-09-06T22:57:36.866Z,78.85
2022-09-06T23:00:05.655Z,78.56
2022-09-06T23:02:33.591Z,78.51
2022-09-06T23:05:01.164Z,78.35
2022-09-06T23:07:28.894Z,79.05
2022-09-06T23:09:56.404Z,77.34
2022-09-06T23:12:23.961Z,78.19
2022-09-06T23:14:51.496Z,77.63
2022-09-06T23:17:19.225Z,79.06
2022-09-06T23:19:46.739Z,79.18
2022-09-06T23:22:14.248Z,79.46
2022-09-06T23:24:42.033Z,78.25
2022-09-06T23:27:09.641Z,78.93
2022-09-06T23:29:41.050Z,79.26
2022-09-06T23:32:08.619Z,79.88
2022-09-06T23:34:37.113Z,79.98
2022-09-06T23:37:04.912Z,80.96
2022-09-06T23:39:33.330Z,81.32
2022-09-06T23:42:02.210Z,81.07
2022-09-06T23:44:29.754Z,81.64
2022-09-06T23:46:57.339Z,82.19
2022-09-06T23:49:24.856Z,82.31
2022-09-06T23:51:53.677Z,82.79
2022-09-06T23:54:21.178Z,82.24
2022-09-06T23:56:48.819Z,81.41
2022-09-06T23:59:16.292Z,81.71
